sensor_id;sensor_type;location;lat;lon;timestamp;P1;durP1;ratioP1;P2;durP2;ratioP2
17917;SDS011;9084;50.956;3.106;2022-12-20T00:00:26;3.78;;;3.35;;
17917;SDS011;9084;50.956;3.106;2022-12-20T00:02:52;3.80;;;3.00;;
17917;SDS011;9084;50.956;3.106;2022-12-20T00:05:17;3.10;;;2.78;;
17917;SDS011;9084;50.956;3.106;2022-12-20T00:07:43;3.85;;;2.88;;
17917;SDS011;9084;50.956;3.106;2022-12-20T00:10:09;3.80;;;3.38;;
17917;SDS011;9084;50.956;3.106;2022-12-20T00:12:38;4.75;;;3.17;;
17917;SDS011;9084;50.956;3.106;2022-12-20T00:15:04;4.47;;;3.33;;
17917;SDS011;9084;50.956;3.106;2022-12-20T00:17:31;3.58;;;3.28;;
17917;SDS011;9084;50.956;3.106;2022-12-20T00:19:57;3.60;;;3.08;;
17917;SDS011;9084;50.956;3.106;2022-12-20T00:22:25;3.50;;;2.83;;
17917;SDS011;9084;50.956;3.106;2022-12-20T00:24:51;3.22;;;2.92;;
17917;SDS011;9084;50.956;3.106;2022-12-20T00:27:17;3.13;;;2.80;;
17917;SDS011;9084;50.956;3.106;2022-12-20T00:29:43;5.03;;;3.10;;
17917;SDS011;9084;50.956;3.106;2022-12-20T00:32:08;3.72;;;2.75;;
17917;SDS011;9084;50.956;3.106;2022-12-20T00:34:34;7.10;;;4.00;;
17917;SDS011;9084;50.956;3.106;2022-12-20T00:37:02;2.97;;;2.67;;
17917;SDS011;9084;50.956;3.106;2022-12-20T00:39:29;4.22;;;3.15;;
17917;SDS011;9084;50.956;3.106;2022-12-20T00:41:55;4.95;;;3.00;;
17917;SDS011;9084;50.956;3.106;2022-12-20T00:44:24;4.13;;;3.00;;
17917;SDS011;9084;50.956;3.106;2022-12-20T00:46:50;3.42;;;3.13;;
17917;SDS011;9084;50.956;3.106;2022-12-20T00:49:16;4.68;;;2.92;;
17917;SDS011;9084;50.956;3.106;2022-12-20T00:51:47;4.80;;;3.33;;
17917;SDS011;9084;50.956;3.106;2022-12-20T00:54:15;3.65;;;3.03;;
17917;SDS011;9084;50.956;3.106;2022-12-20T00:56:41;3.13;;;2.83;;
17917;SDS011;9084;50.956;3.106;2022-12-20T00:59:07;2.95;;;2.65;;
17917;SDS011;9084;50.956;3.106;2022-12-20T01:01:35;3.30;;;2.95;;
17917;SDS011;9084;50.956;3.106;2022-12-20T01:04:02;4.27;;;3.87;;
17917;SDS011;9084;50.956;3.106;2022-12-20T01:06:30;3.40;;;2.83;;
17917;SDS011;9084;50.956;3.106;2022-12-20T01:08:56;3.33;;;2.60;;
17917;SDS011;9084;50.956;3.106;2022-12-20T01:11:24;2.90;;;2.70;;
17917;SDS011;9084;50.956;3.106;2022-12-20T01:13:52;4.97;;;2.80;;
17917;SDS011;9084;50.956;3.106;2022-12-20T01:16:24;3.05;;;2.60;;
17917;SDS011;9084;50.956;3.106;2022-12-20T01:18:52;3.30;;;3.00;;
17917;SDS011;9084;50.956;3.106;2022-12-20T01:21:19;3.72;;;3.28;;
17917;SDS011;9084;50.956;3.106;2022-12-20T01:23:48;5.85;;;2.95;;
17917;SDS011;9084;50.956;3.106;2022-12-20T01:26:16;3.97;;;2.70;;
17917;SDS011;9084;50.956;3.106;2022-12-20T01:28:44;4.45;;;2.88;;
17917;SDS011;9084;50.956;3.106;2022-12-20T01:31:13;3.03;;;2.78;;
17917;SDS011;9084;50.956;3.106;2022-12-20T01:33:41;3.50;;;2.85;;
17917;SDS011;9084;50.956;3.106;2022-12-20T01:36:12;3.92;;;2.97;;
17917;SDS011;9084;50.956;3.106;2022-12-20T01:38:43;4.38;;;3.00;;
17917;SDS011;9084;50.956;3.106;2022-12-20T01:41:17;5.05;;;2.85;;
17917;SDS011;9084;50.956;3.106;2022-12-20T01:46:22;3.60;;;2.60;;
17917;SDS011;9084;50.956;3.106;2022-12-20T01:48:54;5.47;;;3.13;;
17917;SDS011;9084;50.956;3.106;2022-12-20T01:51:25;2.65;;;2.30;;
17917;SDS011;9084;50.956;3.106;2022-12-20T01:53:55;3.65;;;3.00;;
17917;SDS011;9084;50.956;3.106;2022-12-20T01:56:31;2.60;;;2.40;;
17917;SDS011;9084;50.956;3.106;2022-12-20T01:58:56;2.58;;;2.35;;
17917;SDS011;9084;50.956;3.106;2022-12-20T02:01:23;3.38;;;2.42;;
17917;SDS011;9084;50.956;3.106;2022-12-20T02:03:54;3.00;;;2.53;;
17917;SDS011;9084;50.956;3.106;2022-12-20T02:06:22;3.70;;;2.80;;
17917;SDS011;9084;50.956;3.106;2022-12-20T02:08:50;3.70;;;2.80;;
17917;SDS011;9084;50.956;3.106;2022-12-20T02:11:25;3.55;;;2.70;;
17917;SDS011;9084;50.956;3.106;2022-12-20T02:16:39;2.90;;;2.70;;
17917;SDS011;9084;50.956;3.106;2022-12-20T02:19:20;3.10;;;2.67;;
17917;SDS011;9084;50.956;3.106;2022-12-20T02:21:57;3.47;;;2.63;;
17917;SDS011;9084;50.956;3.106;2022-12-20T02:32:24;5.32;;;3.00;;
17917;SDS011;9084;50.956;3.106;2022-12-20T02:34:55;7.97;;;3.03;;
17917;SDS011;9084;50.956;3.106;2022-12-20T02:37:21;4.15;;;3.00;;
17917;SDS011;9084;50.956;3.106;2022-12-20T02:39:46;4.22;;;2.80;;
17917;SDS011;9084;50.956;3.106;2022-12-20T02:42:14;3.58;;;2.80;;
17917;SDS011;9084;50.956;3.106;2022-12-20T02:44:46;2.97;;;2.78;;
17917;SDS011;9084;50.956;3.106;2022-12-20T02:47:54;5.07;;;2.67;;
17917;SDS011;9084;50.956;3.106;2022-12-20T02:50:35;3.80;;;2.70;;
17917;SDS011;9084;50.956;3.106;2022-12-20T02:53:04;2.88;;;2.67;;
17917;SDS011;9084;50.956;3.106;2022-12-20T02:55:43;3.80;;;2.90;;
17917;SDS011;9084;50.956;3.106;2022-12-20T02:58:32;5.55;;;2.80;;
17917;SDS011;9084;50.956;3.106;2022-12-20T03:01:05;3.25;;;2.40;;
17917;SDS011;9084;50.956;3.106;2022-12-20T03:03:35;4.18;;;2.42;;
17917;SDS011;9084;50.956;3.106;2022-12-20T03:06:04;3.45;;;2.63;;
17917;SDS011;9084;50.956;3.106;2022-12-20T03:08:32;3.22;;;2.38;;
17917;SDS011;9084;50.956;3.106;2022-12-20T03:10:58;5.38;;;2.92;;
17917;SDS011;9084;50.956;3.106;2022-12-20T03:13:26;3.08;;;2.78;;
17917;SDS011;9084;50.956;3.106;2022-12-20T03:15:52;4.47;;;2.45;;
17917;SDS011;9084;50.956;3.106;2022-12-20T03:18:21;4.10;;;2.72;;
17917;SDS011;9084;50.956;3.106;2022-12-20T03:20:47;2.92;;;2.45;;
17917;SDS011;9084;50.956;3.106;2022-12-20T03:23:17;3.97;;;2.47;;
17917;SDS011;9084;50.956;3.106;2022-12-20T03:25:46;3.25;;;2.95;;
17917;SDS011;9084;50.956;3.106;2022-12-20T03:28:12;2.90;;;2.67;;
17917;SDS011;9084;50.956;3.106;2022-12-20T03:30:40;3.10;;;2.80;;
17917;SDS011;9084;50.956;3.106;2022-12-20T03:33:08;5.68;;;2.83;;
17917;SDS011;9084;50.956;3.106;2022-12-20T03:35:34;4.05;;;2.85;;
17917;SDS011;9084;50.956;3.106;2022-12-20T03:38:00;2.78;;;2.58;;
17917;SDS011;9084;50.956;3.106;2022-12-20T03:40:25;3.83;;;2.60;;
17917;SDS011;9084;50.956;3.106;2022-12-20T03:42:51;3.28;;;2.47;;
17917;SDS011;9084;50.956;3.106;2022-12-20T03:45:17;4.80;;;2.70;;
17917;SDS011;9084;50.956;3.106;2022-12-20T03:47:43;2.72;;;2.53;;
17917;SDS011;9084;50.956;3.106;2022-12-20T03:50:09;2.97;;;2.67;;
17917;SDS011;9084;50.956;3.106;2022-12-20T03:52:36;3.03;;;2.72;;
17917;SDS011;9084;50.956;3.106;2022-12-20T03:55:03;3.08;;;2.78;;
17917;SDS011;9084;50.956;3.106;2022-12-20T03:57:29;3.25;;;2.45;;
17917;SDS011;9084;50.956;3.106;2022-12-20T03:59:54;4.22;;;2.72;;
17917;SDS011;9084;50.956;3.106;2022-12-20T04:02:20;3.78;;;2.50;;
17917;SDS011;9084;50.956;3.106;2022-12-20T04:04:46;3.08;;;2.60;;
17917;SDS011;9084;50.956;3.106;2022-12-20T04:07:12;3.22;;;2.60;;
17917;SDS011;9084;50.956;3.106;2022-12-20T04:09:40;2.50;;;2.30;;
17917;SDS011;9084;50.956;3.106;2022-12-20T04:12:06;3.03;;;2.72;;
17917;SDS011;9084;50.956;3.106;2022-12-20T04:14:32;3.30;;;3.00;;
17917;SDS011;9084;50.956;3.106;2022-12-20T04:16:58;4.57;;;2.50;;
17917;SDS011;9084;50.956;3.106;2022-12-20T04:19:24;4.18;;;2.47;;
17917;SDS011;9084;50.956;3.106;2022-12-20T04:21:49;4.15;;;2.70;;
17917;SDS011;9084;50.956;3.106;2022-12-20T04:24:16;3.13;;;2.65;;
17917;SDS011;9084;50.956;3.106;2022-12-20T04:26:42;4.82;;;2.50;;
17917;SDS011;9084;50.956;3.106;2022-12-20T04:29:10;3.28;;;2.53;;
17917;SDS011;9084;50.956;3.106;2022-12-20T04:31:36;2.97;;;2.35;;
17917;SDS011;9084;50.956;3.106;2022-12-20T04:34:02;2.65;;;2.10;;
17917;SDS011;9084;50.956;3.106;2022-12-20T04:36:28;5.18;;;2.55;;
17917;SDS011;9084;50.956;3.106;2022-12-20T04:38:53;2.53;;;2.33;;
17917;SDS011;9084;50.956;3.106;2022-12-20T04:41:19;3.25;;;2.47;;
17917;SDS011;9084;50.956;3.106;2022-12-20T04:43:49;4.07;;;2.63;;
17917;SDS011;9084;50.956;3.106;2022-12-20T04:46:17;2.72;;;2.33;;
17917;SDS011;9084;50.956;3.106;2022-12-20T04:48:45;2.58;;;2.20;;
17917;SDS011;9084;50.956;3.106;2022-12-20T04:51:13;3.17;;;2.40;;
17917;SDS011;9084;50.956;3.106;2022-12-20T04:53:39;3.88;;;2.63;;
17917;SDS011;9084;50.956;3.106;2022-12-20T04:56:15;2.42;;;2.22;;
17917;SDS011;9084;50.956;3.106;2022-12-20T04:58:43;2.08;;;1.85;;
17917;SDS011;9084;50.956;3.106;2022-12-20T05:01:14;2.83;;;2.20;;
17917;SDS011;9084;50.956;3.106;2022-12-20T05:03:40;3.08;;;2.00;;
17917;SDS011;9084;50.956;3.106;2022-12-20T05:06:08;4.82;;;2.30;;
17917;SDS011;9084;50.956;3.106;2022-12-20T05:08:35;2.65;;;2.22;;
17917;SDS011;9084;50.956;3.106;2022-12-20T05:11:02;2.85;;;1.77;;
17917;SDS011;9084;50.956;3.106;2022-12-20T05:13:29;6.07;;;2.30;;
17917;SDS011;9084;50.956;3.106;2022-12-20T05:15:55;2.50;;;1.83;;
17917;SDS011;9084;50.956;3.106;2022-12-20T05:18:24;4.05;;;2.42;;
17917;SDS011;9084;50.956;3.106;2022-12-20T05:21:01;2.72;;;2.00;;
17917;SDS011;9084;50.956;3.106;2022-12-20T05:23:46;2.85;;;2.10;;
17917;SDS011;9084;50.956;3.106;2022-12-20T05:26:32;2.90;;;2.20;;
17917;SDS011;9084;50.956;3.106;2022-12-20T05:29:00;3.63;;;2.22;;
17917;SDS011;9084;50.956;3.106;2022-12-20T05:31:26;4.57;;;2.75;;
17917;SDS011;9084;50.956;3.106;2022-12-20T05:33:52;2.83;;;2.35;;
17917;SDS011;9084;50.956;3.106;2022-12-20T05:36:18;3.00;;;2.70;;
17917;SDS011;9084;50.956;3.106;2022-12-20T05:38:45;5.20;;;4.25;;
17917;SDS011;9084;50.956;3.106;2022-12-20T05:41:10;4.68;;;2.75;;
17917;SDS011;9084;50.956;3.106;2022-12-20T05:43:36;5.40;;;3.08;;
17917;SDS011;9084;50.956;3.106;2022-12-20T05:46:06;2.47;;;2.08;;
17917;SDS011;9084;50.956;3.106;2022-12-20T05:48:32;2.90;;;2.70;;
17917;SDS011;9084;50.956;3.106;2022-12-20T05:50:58;4.95;;;3.45;;
17917;SDS011;9084;50.956;3.106;2022-12-20T05:53:26;2.40;;;2.20;;
17917;SDS011;9084;50.956;3.106;2022-12-20T05:55:54;2.42;;;1.92;;
17917;SDS011;9084;50.956;3.106;2022-12-20T05:58:20;2.47;;;2.10;;
17917;SDS011;9084;50.956;3.106;2022-12-20T06:00:48;2.42;;;2.03;;
17917;SDS011;9084;50.956;3.106;2022-12-20T06:03:14;2.42;;;2.22;;
17917;SDS011;9084;50.956;3.106;2022-12-20T06:05:41;2.33;;;2.03;;
17917;SDS011;9084;50.956;3.106;2022-12-20T06:08:08;5.50;;;5.00;;
17917;SDS011;9084;50.956;3.106;2022-12-20T06:10:34;3.90;;;3.53;;
17917;SDS011;9084;50.956;3.106;2022-12-20T06:13:01;4.38;;;3.33;;
17917;SDS011;9084;50.956;3.106;2022-12-20T06:15:28;6.65;;;5.43;;
17917;SDS011;9084;50.956;3.106;2022-12-20T06:17:56;6.38;;;4.25;;
17917;SDS011;9084;50.956;3.106;2022-12-20T06:20:22;3.80;;;3.50;;
17917;SDS011;9084;50.956;3.106;2022-12-20T06:22:48;4.30;;;2.72;;
17917;SDS011;9084;50.956;3.106;2022-12-20T06:25:14;3.88;;;2.70;;
17917;SDS011;9084;50.956;3.106;2022-12-20T06:27:43;4.28;;;2.05;;
17917;SDS011;9084;50.956;3.106;2022-12-20T06:30:09;2.67;;;2.20;;
17917;SDS011;9084;50.956;3.106;2022-12-20T06:32:36;2.58;;;2.20;;
17917;SDS011;9084;50.956;3.106;2022-12-20T06:35:03;7.55;;;2.92;;
17917;SDS011;9084;50.956;3.106;2022-12-20T06:37:32;2.95;;;2.42;;
17917;SDS011;9084;50.956;3.106;2022-12-20T06:39:58;6.15;;;2.13;;
17917;SDS011;9084;50.956;3.106;2022-12-20T06:42:24;2.92;;;2.28;;
17917;SDS011;9084;50.956;3.106;2022-12-20T06:44:49;3.67;;;2.42;;
17917;SDS011;9084;50.956;3.106;2022-12-20T06:47:16;4.43;;;1.95;;
17917;SDS011;9084;50.956;3.106;2022-12-20T06:49:41;3.03;;;2.38;;
17917;SDS011;9084;50.956;3.106;2022-12-20T06:52:09;4.97;;;2.90;;
17917;SDS011;9084;50.956;3.106;2022-12-20T06:54:36;2.53;;;2.33;;
17917;SDS011;9084;50.956;3.106;2022-12-20T06:57:01;4.00;;;2.40;;
17917;SDS011;9084;50.956;3.106;2022-12-20T06:59:27;2.78;;;2.33;;
17917;SDS011;9084;50.956;3.106;2022-12-20T07:01:53;2.72;;;2.33;;
17917;SDS011;9084;50.956;3.106;2022-12-20T07:04:19;5.82;;;2.90;;
17917;SDS011;9084;50.956;3.106;2022-12-20T07:06:45;2.83;;;2.42;;
17917;SDS011;9084;50.956;3.106;2022-12-20T07:09:11;3.25;;;2.67;;
17917;SDS011;9084;50.956;3.106;2022-12-20T07:11:37;3.70;;;2.40;;
17917;SDS011;9084;50.956;3.106;2022-12-20T07:14:02;4.32;;;2.47;;
17917;SDS011;9084;50.956;3.106;2022-12-20T07:16:29;3.75;;;2.60;;
17917;SDS011;9084;50.956;3.106;2022-12-20T07:18:56;4.00;;;2.50;;
17917;SDS011;9084;50.956;3.106;2022-12-20T07:21:22;4.80;;;2.85;;
17917;SDS011;9084;50.956;3.106;2022-12-20T07:23:48;4.55;;;2.92;;
17917;SDS011;9084;50.956;3.106;2022-12-20T07:26:15;2.72;;;2.53;;
17917;SDS011;9084;50.956;3.106;2022-12-20T07:28:44;5.85;;;2.80;;
17917;SDS011;9084;50.956;3.106;2022-12-20T07:31:12;3.97;;;2.80;;
17917;SDS011;9084;50.956;3.106;2022-12-20T07:33:38;3.90;;;3.05;;
17917;SDS011;9084;50.956;3.106;2022-12-20T07:36:09;3.08;;;2.42;;
17917;SDS011;9084;50.956;3.106;2022-12-20T07:38:37;6.35;;;2.42;;
17917;SDS011;9084;50.956;3.106;2022-12-20T07:41:06;3.65;;;2.67;;
17917;SDS011;9084;50.956;3.106;2022-12-20T07:43:34;5.22;;;2.90;;
17917;SDS011;9084;50.956;3.106;2022-12-20T07:46:02;4.55;;;2.92;;
17917;SDS011;9084;50.956;3.106;2022-12-20T07:48:29;2.97;;;2.55;;
17917;SDS011;9084;50.956;3.106;2022-12-20T07:50:58;5.35;;;3.55;;
17917;SDS011;9084;50.956;3.106;2022-12-20T07:53:29;3.35;;;2.90;;
17917;SDS011;9084;50.956;3.106;2022-12-20T07:55:58;3.45;;;2.50;;
17917;SDS011;9084;50.956;3.106;2022-12-20T07:58:25;3.03;;;2.67;;
17917;SDS011;9084;50.956;3.106;2022-12-20T08:00:53;4.22;;;2.75;;
17917;SDS011;9084;50.956;3.106;2022-12-20T08:03:24;4.80;;;2.83;;
17917;SDS011;9084;50.956;3.106;2022-12-20T08:05:56;2.97;;;2.60;;
17917;SDS011;9084;50.956;3.106;2022-12-20T08:08:25;5.45;;;2.72;;
17917;SDS011;9084;50.956;3.106;2022-12-20T08:10:51;6.03;;;2.58;;
17917;SDS011;9084;50.956;3.106;2022-12-20T08:13:19;2.90;;;2.53;;
17917;SDS011;9084;50.956;3.106;2022-12-20T08:15:45;2.90;;;2.58;;
17917;SDS011;9084;50.956;3.106;2022-12-20T08:18:11;5.60;;;3.35;;
17917;SDS011;9084;50.956;3.106;2022-12-20T08:20:37;2.80;;;2.35;;
17917;SDS011;9084;50.956;3.106;2022-12-20T08:23:03;6.03;;;2.67;;
17917;SDS011;9084;50.956;3.106;2022-12-20T08:25:29;11.23;;;4.47;;
17917;SDS011;9084;50.956;3.106;2022-12-20T08:27:57;3.65;;;2.40;;
17917;SDS011;9084;50.956;3.106;2022-12-20T08:30:25;6.70;;;2.63;;
17917;SDS011;9084;50.956;3.106;2022-12-20T08:32:52;4.20;;;2.60;;
17917;SDS011;9084;50.956;3.106;2022-12-20T08:35:22;9.90;;;3.47;;
17917;SDS011;9084;50.956;3.106;2022-12-20T08:37:53;16.15;;;4.95;;
17917;SDS011;9084;50.956;3.106;2022-12-20T08:40:23;14.55;;;4.57;;
17917;SDS011;9084;50.956;3.106;2022-12-20T08:42:48;10.13;;;3.13;;
17917;SDS011;9084;50.956;3.106;2022-12-20T08:45:14;3.45;;;2.75;;
17917;SDS011;9084;50.956;3.106;2022-12-20T08:47:43;4.18;;;2.60;;
17917;SDS011;9084;50.956;3.106;2022-12-20T08:50:09;16.90;;;7.88;;
17917;SDS011;9084;50.956;3.106;2022-12-20T08:52:35;53.03;;;10.23;;
17917;SDS011;9084;50.956;3.106;2022-12-20T08:55:04;6.38;;;3.20;;
17917;SDS011;9084;50.956;3.106;2022-12-20T08:57:30;5.00;;;2.80;;
17917;SDS011;9084;50.956;3.106;2022-12-20T08:59:57;7.25;;;3.78;;
17917;SDS011;9084;50.956;3.106;2022-12-20T09:02:25;17.27;;;5.07;;
17917;SDS011;9084;50.956;3.106;2022-12-20T09:04:53;4.93;;;2.65;;
17917;SDS011;9084;50.956;3.106;2022-12-20T09:07:19;4.85;;;3.78;;
17917;SDS011;9084;50.956;3.106;2022-12-20T09:09:45;4.00;;;2.22;;
17917;SDS011;9084;50.956;3.106;2022-12-20T09:12:11;7.50;;;3.83;;
17917;SDS011;9084;50.956;3.106;2022-12-20T09:14:39;4.63;;;2.70;;
17917;SDS011;9084;50.956;3.106;2022-12-20T09:17:05;6.00;;;3.90;;
17917;SDS011;9084;50.956;3.106;2022-12-20T09:19:31;2.92;;;2.17;;
17917;SDS011;9084;50.956;3.106;2022-12-20T09:21:57;4.20;;;2.65;;
17917;SDS011;9084;50.956;3.106;2022-12-20T09:24:23;3.05;;;2.42;;
17917;SDS011;9084;50.956;3.106;2022-12-20T09:26:51;3.47;;;2.22;;
17917;SDS011;9084;50.956;3.106;2022-12-20T09:29:19;4.50;;;4.10;;
17917;SDS011;9084;50.956;3.106;2022-12-20T09:31:47;5.78;;;2.60;;
17917;SDS011;9084;50.956;3.106;2022-12-20T09:34:14;5.22;;;2.60;;
17917;SDS011;9084;50.956;3.106;2022-12-20T09:36:46;3.53;;;2.92;;
17917;SDS011;9084;50.956;3.106;2022-12-20T09:39:13;3.35;;;3.05;;
17917;SDS011;9084;50.956;3.106;2022-12-20T09:41:42;2.50;;;2.30;;
17917;SDS011;9084;50.956;3.106;2022-12-20T09:44:18;4.95;;;2.55;;
17917;SDS011;9084;50.956;3.106;2022-12-20T09:47:03;5.00;;;3.40;;
17917;SDS011;9084;50.956;3.106;2022-12-20T09:49:32;3.97;;;2.75;;
17917;SDS011;9084;50.956;3.106;2022-12-20T09:55:18;5.93;;;2.97;;
17917;SDS011;9084;50.956;3.106;2022-12-20T10:00:10;5.57;;;3.05;;
17917;SDS011;9084;50.956;3.106;2022-12-20T10:02:39;3.50;;;2.85;;
17917;SDS011;9084;50.956;3.106;2022-12-20T10:05:07;4.22;;;2.67;;
17917;SDS011;9084;50.956;3.106;2022-12-20T10:08:00;4.32;;;2.95;;
17917;SDS011;9084;50.956;3.106;2022-12-20T10:10:53;5.43;;;3.30;;
17917;SDS011;9084;50.956;3.106;2022-12-20T10:13:34;3.05;;;2.65;;
17917;SDS011;9084;50.956;3.106;2022-12-20T10:16:23;5.18;;;3.35;;
17917;SDS011;9084;50.956;3.106;2022-12-20T10:19:13;5.75;;;3.10;;
17917;SDS011;9084;50.956;3.106;2022-12-20T10:22:04;6.25;;;2.83;;
17917;SDS011;9084;50.956;3.106;2022-12-20T10:24:35;5.80;;;2.67;;
17917;SDS011;9084;50.956;3.106;2022-12-20T10:27:17;4.50;;;3.53;;
17917;SDS011;9084;50.956;3.106;2022-12-20T10:29:44;6.03;;;2.83;;
17917;SDS011;9084;50.956;3.106;2022-12-20T10:32:14;3.60;;;2.95;;
17917;SDS011;9084;50.956;3.106;2022-12-20T10:34:51;2.95;;;2.47;;
17917;SDS011;9084;50.956;3.106;2022-12-20T10:37:23;3.10;;;2.78;;
17917;SDS011;9084;50.956;3.106;2022-12-20T10:39:50;3.70;;;2.50;;
17917;SDS011;9084;50.956;3.106;2022-12-20T10:42:24;5.93;;;3.13;;
17917;SDS011;9084;50.956;3.106;2022-12-20T10:47:58;5.68;;;3.25;;
17917;SDS011;9084;50.956;3.106;2022-12-20T10:50:28;3.78;;;2.90;;
17917;SDS011;9084;50.956;3.106;2022-12-20T10:55:39;4.22;;;2.88;;
17917;SDS011;9084;50.956;3.106;2022-12-20T11:00:42;4.53;;;2.75;;
17917;SDS011;9084;50.956;3.106;2022-12-20T11:03:17;3.38;;;3.05;;
17917;SDS011;9084;50.956;3.106;2022-12-20T11:05:56;4.55;;;3.17;;
17917;SDS011;9084;50.956;3.106;2022-12-20T11:08:25;5.30;;;3.03;;
17917;SDS011;9084;50.956;3.106;2022-12-20T11:11:12;6.00;;;3.67;;
17917;SDS011;9084;50.956;3.106;2022-12-20T11:13:44;3.88;;;3.35;;
17917;SDS011;9084;50.956;3.106;2022-12-20T11:16:32;4.47;;;3.00;;
17917;SDS011;9084;50.956;3.106;2022-12-20T11:19:15;4.25;;;3.00;;
17917;SDS011;9084;50.956;3.106;2022-12-20T11:38:35;4.25;;;3.22;;
17917;SDS011;9084;50.956;3.106;2022-12-20T11:57:55;5.63;;;4.10;;
17917;SDS011;9084;50.956;3.106;2022-12-20T12:00:22;3.70;;;3.25;;
17917;SDS011;9084;50.956;3.106;2022-12-20T12:02:53;3.67;;;3.22;;
17917;SDS011;9084;50.956;3.106;2022-12-20T12:08:10;5.68;;;3.42;;
17917;SDS011;9084;50.956;3.106;2022-12-20T12:10:55;4.55;;;3.35;;
17917;SDS011;9084;50.956;3.106;2022-12-20T12:13:26;4.35;;;3.60;;
17917;SDS011;9084;50.956;3.106;2022-12-20T12:18:41;4.38;;;3.10;;
17917;SDS011;9084;50.956;3.106;2022-12-20T12:21:11;4.82;;;3.47;;
17917;SDS011;9084;50.956;3.106;2022-12-20T12:26:34;4.07;;;3.33;;
17917;SDS011;9084;50.956;3.106;2022-12-20T12:29:03;4.07;;;3.33;;
17917;SDS011;9084;50.956;3.106;2022-12-20T12:39:47;3.80;;;3.45;;
17917;SDS011;9084;50.956;3.106;2022-12-20T12:45:25;5.03;;;3.47;;
17917;SDS011;9084;50.956;3.106;2022-12-20T12:48:06;3.72;;;3.33;;
17917;SDS011;9084;50.956;3.106;2022-12-20T12:50:59;3.22;;;2.95;;
17917;SDS011;9084;50.956;3.106;2022-12-20T12:53:48;3.53;;;3.00;;
17917;SDS011;9084;50.956;3.106;2022-12-20T13:04:26;3.53;;;3.25;;
17917;SDS011;9084;50.956;3.106;2022-12-20T13:06:55;3.83;;;3.50;;
17917;SDS011;9084;50.956;3.106;2022-12-20T13:11:52;4.07;;;3.78;;
17917;SDS011;9084;50.956;3.106;2022-12-20T13:16:46;5.88;;;3.63;;
17917;SDS011;9084;50.956;3.106;2022-12-20T13:19:17;6.07;;;4.10;;
17917;SDS011;9084;50.956;3.106;2022-12-20T13:22:14;7.10;;;3.78;;
17917;SDS011;9084;50.956;3.106;2022-12-20T13:40:59;3.78;;;3.45;;
17917;SDS011;9084;50.956;3.106;2022-12-20T13:43:34;3.97;;;3.55;;
17917;SDS011;9084;50.956;3.106;2022-12-20T13:48:41;4.30;;;4.00;;
17917;SDS011;9084;50.956;3.106;2022-12-20T13:51:18;4.45;;;4.13;;
17917;SDS011;9084;50.956;3.106;2022-12-20T13:53:57;9.55;;;4.15;;
17917;SDS011;9084;50.956;3.106;2022-12-20T13:59:21;6.07;;;5.10;;
17917;SDS011;9084;50.956;3.106;2022-12-20T14:01:55;5.75;;;4.40;;
17917;SDS011;9084;50.956;3.106;2022-12-20T14:04:26;3.90;;;3.60;;
17917;SDS011;9084;50.956;3.106;2022-12-20T14:07:03;4.63;;;4.20;;
17917;SDS011;9084;50.956;3.106;2022-12-20T14:09:30;5.00;;;4.60;;
17917;SDS011;9084;50.956;3.106;2022-12-20T14:12:16;4.47;;;4.07;;
17917;SDS011;9084;50.956;3.106;2022-12-20T14:14:46;4.55;;;3.70;;
17917;SDS011;9084;50.956;3.106;2022-12-20T14:17:14;5.90;;;4.60;;
17917;SDS011;9084;50.956;3.106;2022-12-20T14:19:42;4.40;;;4.00;;
17917;SDS011;9084;50.956;3.106;2022-12-20T14:22:09;4.82;;;4.32;;
17917;SDS011;9084;50.956;3.106;2022-12-20T14:24:37;4.95;;;4.40;;
17917;SDS011;9084;50.956;3.106;2022-12-20T14:27:07;4.68;;;4.22;;
17917;SDS011;9084;50.956;3.106;2022-12-20T14:29:37;5.03;;;4.18;;
17917;SDS011;9084;50.956;3.106;2022-12-20T14:32:04;4.90;;;4.50;;
17917;SDS011;9084;50.956;3.106;2022-12-20T14:34:31;5.00;;;4.50;;
17917;SDS011;9084;50.956;3.106;2022-12-20T14:42:37;4.72;;;4.32;;
17917;SDS011;9084;50.956;3.106;2022-12-20T14:45:05;4.05;;;3.72;;
17917;SDS011;9084;50.956;3.106;2022-12-20T14:47:31;4.50;;;4.10;;
17917;SDS011;9084;50.956;3.106;2022-12-20T14:50:01;6.10;;;4.53;;
17917;SDS011;9084;50.956;3.106;2022-12-20T14:52:35;5.07;;;4.18;;
17917;SDS011;9084;50.956;3.106;2022-12-20T15:10:49;6.25;;;5.35;;
17917;SDS011;9084;50.956;3.106;2022-12-20T15:16:24;5.55;;;4.78;;
17917;SDS011;9084;50.956;3.106;2022-12-20T15:18:52;4.78;;;4.35;;
17917;SDS011;9084;50.956;3.106;2022-12-20T15:24:02;8.75;;;8.02;;
17917;SDS011;9084;50.956;3.106;2022-12-20T15:26:35;6.45;;;5.85;;
17917;SDS011;9084;50.956;3.106;2022-12-20T15:29:05;7.03;;;6.15;;
17917;SDS011;9084;50.956;3.106;2022-12-20T15:31:32;5.82;;;5.22;;
17917;SDS011;9084;50.956;3.106;2022-12-20T15:34:02;5.82;;;5.32;;
17917;SDS011;9084;50.956;3.106;2022-12-20T15:36:36;6.05;;;5.57;;
17917;SDS011;9084;50.956;3.106;2022-12-20T15:39:02;5.47;;;5.07;;
17917;SDS011;9084;50.956;3.106;2022-12-20T15:41:32;6.15;;;5.55;;
17917;SDS011;9084;50.956;3.106;2022-12-20T15:44:00;6.43;;;5.70;;
17917;SDS011;9084;50.956;3.106;2022-12-20T15:46:32;5.90;;;5.28;;
17917;SDS011;9084;50.956;3.106;2022-12-20T15:48:57;5.60;;;5.10;;
17917;SDS011;9084;50.956;3.106;2022-12-20T15:51:34;7.22;;;6.63;;
17917;SDS011;9084;50.956;3.106;2022-12-20T15:54:03;6.55;;;5.95;;
17917;SDS011;9084;50.956;3.106;2022-12-20T15:56:34;7.20;;;6.60;;
17917;SDS011;9084;50.956;3.106;2022-12-20T15:58:59;7.00;;;6.40;;
17917;SDS011;9084;50.956;3.106;2022-12-20T16:01:30;6.93;;;6.32;;
17917;SDS011;9084;50.956;3.106;2022-12-20T16:04:00;9.13;;;7.43;;
17917;SDS011;9084;50.956;3.106;2022-12-20T16:06:28;6.97;;;6.43;;
17917;SDS011;9084;50.956;3.106;2022-12-20T16:08:54;7.38;;;6.78;;
17917;SDS011;9084;50.956;3.106;2022-12-20T16:11:21;7.97;;;7.38;;
17917;SDS011;9084;50.956;3.106;2022-12-20T16:13:51;7.75;;;7.15;;
17917;SDS011;9084;50.956;3.106;2022-12-20T16:16:22;8.13;;;7.38;;
17917;SDS011;9084;50.956;3.106;2022-12-20T16:18:49;8.07;;;7.25;;
17917;SDS011;9084;50.956;3.106;2022-12-20T16:21:19;8.80;;;8.00;;
17917;SDS011;9084;50.956;3.106;2022-12-20T16:23:45;8.60;;;7.93;;
17917;SDS011;9084;50.956;3.106;2022-12-20T16:26:12;7.70;;;7.18;;
17917;SDS011;9084;50.956;3.106;2022-12-20T16:28:40;8.00;;;7.40;;
17917;SDS011;9084;50.956;3.106;2022-12-20T16:31:24;9.18;;;8.38;;
17917;SDS011;9084;50.956;3.106;2022-12-20T16:33:56;9.45;;;8.68;;
17917;SDS011;9084;50.956;3.106;2022-12-20T16:36:24;9.20;;;8.40;;
17917;SDS011;9084;50.956;3.106;2022-12-20T16:38:53;9.10;;;8.30;;
17917;SDS011;9084;50.956;3.106;2022-12-20T16:41:20;9.32;;;8.43;;
17917;SDS011;9084;50.956;3.106;2022-12-20T16:43:54;8.60;;;7.90;;
17917;SDS011;9084;50.956;3.106;2022-12-20T16:46:24;9.18;;;8.38;;
17917;SDS011;9084;50.956;3.106;2022-12-20T16:48:53;10.18;;;9.27;;
17917;SDS011;9084;50.956;3.106;2022-12-20T16:53:53;10.25;;;9.25;;
17917;SDS011;9084;50.956;3.106;2022-12-20T16:56:21;9.27;;;8.57;;
17917;SDS011;9084;50.956;3.106;2022-12-20T16:58:47;9.48;;;8.68;;
17917;SDS011;9084;50.956;3.106;2022-12-20T17:01:15;9.77;;;9.00;;
17917;SDS011;9084;50.956;3.106;2022-12-20T17:03:45;9.30;;;8.50;;
17917;SDS011;9084;50.956;3.106;2022-12-20T17:06:12;10.23;;;9.38;;
17917;SDS011;9084;50.956;3.106;2022-12-20T17:08:44;9.93;;;9.13;;
17917;SDS011;9084;50.956;3.106;2022-12-20T17:13:40;10.02;;;9.23;;
17917;SDS011;9084;50.956;3.106;2022-12-20T17:16:09;10.50;;;9.63;;
17917;SDS011;9084;50.956;3.106;2022-12-20T17:18:37;10.18;;;9.25;;
17917;SDS011;9084;50.956;3.106;2022-12-20T17:21:06;12.73;;;11.73;;
17917;SDS011;9084;50.956;3.106;2022-12-20T17:23:46;9.27;;;8.60;;
17917;SDS011;9084;50.956;3.106;2022-12-20T17:26:14;10.82;;;9.93;;
17917;SDS011;9084;50.956;3.106;2022-12-20T17:28:42;10.82;;;9.98;;
17917;SDS011;9084;50.956;3.106;2022-12-20T17:34:16;11.23;;;10.43;;
17917;SDS011;9084;50.956;3.106;2022-12-20T17:36:45;10.98;;;9.98;;
17917;SDS011;9084;50.956;3.106;2022-12-20T17:39:14;10.48;;;9.65;;
17917;SDS011;9084;50.956;3.106;2022-12-20T17:41:45;11.05;;;10.15;;
17917;SDS011;9084;50.956;3.106;2022-12-20T17:44:27;11.32;;;10.43;;